Time;durP1;ratioP1;P1;durP2;ratioP2;P2;SDS_P1;SDS_P2;PMS_P1;PMS_P2;Temp;Humidity;BMP_temperature;BMP_pressure;BME280_temperature;BME280_humidity;BME280_pressure;Samples;Min_cycle;Max_cycle;Signal;HPM_P1;HPM_P2
2023/06/09 00:01:48;;;;;;;18.73;6.85;;;15.10;99.90;;;;;;5072158;28;20092;-67
2023/06/09 00:04:15;;;;;;;14.60;6.72;;;15.00;99.90;;;;;;5093006;28;20048;-67
2023/06/09 00:06:41;;;;;;;15.50;6.60;;;15.00;99.90;;;;;;5095406;28;20055;-67
2023/06/09 00:09:07;;;;;;;14.35;6.28;;;15.00;99.90;;;;;;5067160;28;20044;-69
2023/06/09 00:11:33;;;;;;;15.43;6.75;;;14.90;99.90;;;;;;5069163;28;20181;-68
2023/06/09 00:13:59;;;;;;;16.00;6.55;;;14.90;99.90;;;;;;5091700;28;20040;-67
2023/06/09 00:16:26;;;;;;;17.90;7.22;;;14.90;99.90;;;;;;5093793;28;20113;-68
2023/06/09 00:18:52;;;;;;;20.35;7.75;;;14.90;99.90;;;;;;5069094;28;20050;-65
2023/06/09 00:21:19;;;;;;;19.60;7.95;;;14.90;99.90;;;;;;5091815;28;20043;-68
2023/06/09 00:23:45;;;;;;;21.90;8.03;;;15.00;99.90;;;;;;5089797;28;20398;-66
2023/06/09 00:26:12;;;;;;;16.55;7.38;;;14.90;99.90;;;;;;5094658;28;20324;-67
2023/06/09 00:28:38;;;;;;;17.05;7.57;;;14.90;99.90;;;;;;5068484;28;21203;-67
2023/06/09 00:31:03;;;;;;;17.00;7.25;;;14.80;99.90;;;;;;5073876;28;20110;-67
2023/06/09 00:33:29;;;;;;;16.08;6.72;;;14.80;99.90;;;;;;5109696;28;20055;-68
2023/06/09 00:35:55;;;;;;;18.63;7.90;;;14.80;99.90;;;;;;5107631;28;20108;-67
2023/06/09 00:38:20;;;;;;;23.13;7.53;;;14.80;99.90;;;;;;5091964;28;20501;-69
2023/06/09 00:40:48;;;;;;;15.00;7.70;;;14.80;99.90;;;;;;5090090;28;20108;-68
2023/06/09 00:43:14;;;;;;;19.23;7.80;;;14.70;99.90;;;;;;5074723;28;20066;-68
2023/06/09 00:45:40;;;;;;;18.63;7.70;;;14.70;99.90;;;;;;5094407;28;20606;-66
2023/06/09 00:48:06;;;;;;;20.85;7.72;;;14.60;99.90;;;;;;5089535;28;20043;-67
2023/06/09 00:50:32;;;;;;;18.30;7.63;;;14.60;99.90;;;;;;5069053;28;20066;-68
2023/06/09 00:52:59;;;;;;;17.55;7.70;;;14.60;99.90;;;;;;5093204;28;20100;-68
2023/06/09 00:55:26;;;;;;;15.33;7.47;;;14.50;99.90;;;;;;5090761;28;20076;-67
2023/06/09 00:57:55;;;;;;;18.58;7.28;;;14.60;99.90;;;;;;5088890;28;20332;-69
2023/06/09 01:00:31;;;;;;;14.43;7.15;;;14.60;99.90;;;;;;5082025;28;20035;-67
2023/06/09 01:03:01;;;;;;;16.42;7.78;;;14.60;99.90;;;;;;5091045;28;21196;-69
2023/06/09 01:05:32;;;;;;;20.05;7.90;;;14.50;99.90;;;;;;5088953;28;21229;-67
2023/06/09 01:08:04;;;;;;;18.15;8.05;;;14.40;99.90;;;;;;5068083;28;20047;-68
2023/06/09 01:11:05;;;;;;;21.08;9.40;;;14.40;99.90;;;;;;5082832;28;20048;-67
2023/06/09 01:13:33;;;;;;;17.95;8.63;;;14.30;99.90;;;;;;5048733;28;20048;-67
2023/06/09 01:16:09;;;;;;;23.63;9.90;;;14.30;99.90;;;;;;5081715;28;20043;-67
2023/06/09 01:18:36;;;;;;;21.38;9.32;;;14.20;99.90;;;;;;5098298;28;20075;-67
2023/06/09 01:21:35;;;;;;;19.58;9.30;;;14.20;99.90;;;;;;5082357;28;20087;-67
2023/06/09 01:24:14;;;;;;;25.30;9.55;;;14.20;99.90;;;;;;5088889;28;20051;-66
2023/06/09 01:26:40;;;;;;;18.23;9.07;;;14.10;99.90;;;;;;5089817;28;20044;-66
2023/06/09 01:29:07;;;;;;;23.67;10.35;;;14.10;99.90;;;;;;5094701;28;20379;-66
2023/06/09 01:31:33;;;;;;;19.63;8.83;;;14.10;99.90;;;;;;5093045;28;20130;-68
2023/06/09 01:34:00;;;;;;;20.20;9.65;;;14.00;99.90;;;;;;5077274;28;20055;-68
2023/06/09 01:36:27;;;;;;;23.60;9.77;;;14.00;99.90;;;;;;5078853;28;20084;-67
2023/06/09 01:38:52;;;;;;;19.25;9.65;;;14.00;99.90;;;;;;5097806;28;20487;-67
2023/06/09 01:41:18;;;;;;;25.70;11.20;;;13.90;99.90;;;;;;5094227;28;20085;-67
2023/06/09 01:43:44;;;;;;;22.05;10.77;;;13.90;99.90;;;;;;5094852;28;20097;-67
2023/06/09 01:46:09;;;;;;;21.63;10.57;;;13.80;99.90;;;;;;5109692;27;20107;-66
2023/06/09 01:49:08;;;;;;;20.52;10.43;;;13.80;99.90;;;;;;5111085;27;20040;-68
2023/06/09 01:51:58;;;;;;;21.45;10.63;;;13.80;99.90;;;;;;5065684;28;20441;-67
2023/06/09 01:54:31;;;;;;;20.45;9.85;;;13.80;99.90;;;;;;5074706;28;20044;-68
2023/06/09 01:57:03;;;;;;;20.00;10.85;;;13.80;99.90;;;;;;5096983;28;20118;-67
2023/06/09 01:59:37;;;;;;;23.50;10.85;;;13.70;99.90;;;;;;5074032;28;20780;-69
2023/06/09 02:02:04;;;;;;;20.63;10.63;;;13.70;99.90;;;;;;5093854;28;20665;-67
2023/06/09 02:04:31;;;;;;;20.50;10.68;;;13.70;99.90;;;;;;5094412;28;20462;-67
2023/06/09 02:06:58;;;;;;;;;;;13.70;99.90;;;;;;5078913;28;20154;-67
2023/06/09 02:09:24;;;;;;;21.50;10.90;;;13.60;99.90;;;;;;5099525;28;19920;-67
2023/06/09 02:11:51;;;;;;;18.90;10.02;;;13.60;99.90;;;;;;5097756;28;20043;-67
2023/06/09 02:14:17;;;;;;;23.80;11.15;;;13.60;99.90;;;;;;5098197;28;20052;-68
2023/06/09 02:16:43;;;;;;;22.17;10.77;;;13.60;99.90;;;;;;5071340;28;20107;-68
2023/06/09 02:19:12;;;;;;;22.15;10.98;;;13.60;99.90;;;;;;5066209;28;20048;-66
2023/06/09 02:21:38;;;;;;;21.88;10.52;;;13.60;99.90;;;;;;5070245;28;20529;-66
2023/06/09 02:24:04;;;;;;;20.58;10.77;;;13.60;99.90;;;;;;5089443;28;20047;-67
2023/06/09 02:26:30;;;;;;;24.73;10.90;;;13.60;99.90;;;;;;5095359;28;20972;-68
2023/06/09 02:28:56;;;;;;;22.65;10.25;;;13.60;99.90;;;;;;5076418;28;20044;-68
2023/06/09 02:31:22;;;;;;;21.67;10.07;;;13.60;99.90;;;;;;5076606;28;20048;-67
2023/06/09 02:33:47;;;;;;;21.80;10.75;;;13.60;99.90;;;;;;5068105;28;20044;-68
2023/06/09 02:36:13;;;;;;;19.88;10.75;;;13.60;99.90;;;;;;5083701;28;20178;-67
2023/06/09 02:38:39;;;;;;;20.48;10.43;;;13.60;99.90;;;;;;5080395;28;20134;-68
2023/06/09 02:41:05;;;;;;;20.10;11.15;;;13.60;99.90;;;;;;5104600;27;20061;-68
2023/06/09 02:43:30;;;;;;;25.20;11.00;;;13.60;99.90;;;;;;5072538;28;21769;-67
2023/06/09 02:45:56;;;;;;;23.58;10.57;;;13.60;99.90;;;;;;5088498;28;20047;-67
2023/06/09 02:48:21;;;;;;;19.73;10.57;;;13.60;99.90;;;;;;5082570;28;20036;-69
2023/06/09 02:50:47;;;;;;;16.85;10.20;;;13.60;99.90;;;;;;5082582;28;20095;-68
2023/06/09 02:53:13;;;;;;;22.88;10.85;;;13.60;99.90;;;;;;5060053;28;20055;-67
2023/06/09 02:55:39;;;;;;;20.85;10.85;;;13.60;99.90;;;;;;5088325;28;20048;-67
2023/06/09 02:58:05;;;;;;;27.80;11.32;;;13.60;99.90;;;;;;5075135;28;20043;-67
2023/06/09 03:00:31;;;;;;;21.00;10.40;;;13.50;99.90;;;;;;5077184;28;20047;-68
2023/06/09 03:02:57;;;;;;;21.08;11.00;;;13.50;99.90;;;;;;5094063;28;20034;-68
2023/06/09 03:05:24;;;;;;;22.45;11.43;;;13.40;99.90;;;;;;5105915;27;20051;-68
2023/06/09 03:07:50;;;;;;;19.80;10.60;;;13.50;99.90;;;;;;5088583;28;20044;-66
2023/06/09 03:10:18;;;;;;;22.05;10.80;;;13.50;99.90;;;;;;5068544;28;20085;-68
2023/06/09 03:12:43;;;;;;;19.58;10.70;;;13.40;99.90;;;;;;5106199;27;20048;-68
2023/06/09 03:15:09;;;;;;;25.17;11.77;;;13.40;99.90;;;;;;5094069;28;20890;-67
2023/06/09 03:17:35;;;;;;;21.80;11.75;;;13.50;99.90;;;;;;5092071;28;20043;-67
2023/06/09 03:20:01;;;;;;;21.88;11.50;;;13.40;99.90;;;;;;5106067;27;20058;-69
2023/06/09 03:22:27;;;;;;;19.95;11.60;;;13.40;99.90;;;;;;5091473;28;21219;-69
2023/06/09 03:24:53;;;;;;;22.73;11.32;;;13.40;99.90;;;;;;5070841;28;20051;-68
2023/06/09 03:27:19;;;;;;;21.35;11.60;;;13.40;99.90;;;;;;5089166;28;20073;-68
2023/06/09 03:29:44;;;;;;;21.20;11.30;;;13.40;99.90;;;;;;5098435;28;20039;-69
2023/06/09 03:32:10;;;;;;;20.58;11.00;;;13.40;99.90;;;;;;5094634;28;20047;-67
2023/06/09 03:34:36;;;;;;;23.80;11.85;;;13.40;99.90;;;;;;5066864;28;20104;-67
2023/06/09 03:37:04;;;;;;;24.27;12.25;;;13.40;99.90;;;;;;5077235;28;20059;-67
2023/06/09 03:39:29;;;;;;;18.58;11.70;;;13.40;99.90;;;;;;5079042;28;20054;-68
2023/06/09 03:41:56;;;;;;;20.10;11.43;;;13.40;99.90;;;;;;5112644;27;20039;-67
2023/06/09 03:44:22;;;;;;;24.77;12.07;;;13.40;99.90;;;;;;5074655;28;20134;-67
2023/06/09 03:46:48;;;;;;;20.80;11.18;;;13.40;99.90;;;;;;5073548;28;21005;-67
2023/06/09 03:49:13;;;;;;;21.63;12.05;;;13.40;99.90;;;;;;5092059;28;20074;-67
2023/06/09 03:51:39;;;;;;;20.65;11.02;;;13.40;99.90;;;;;;5088663;28;20047;-67
2023/06/09 03:54:05;;;;;;;23.63;11.75;;;13.40;99.90;;;;;;5094469;28;20051;-67
2023/06/09 03:56:30;;;;;;;22.23;11.55;;;13.50;99.90;;;;;;5075320;28;20186;-67
2023/06/09 03:58:57;;;;;;;21.40;11.52;;;13.50;99.90;;;;;;5085055;28;20050;-68
2023/06/09 04:01:25;;;;;;;23.43;11.20;;;13.60;99.90;;;;;;5088740;28;20063;-69
2023/06/09 04:03:51;;;;;;;21.95;11.95;;;13.60;99.90;;;;;;5070665;28;20062;-67
2023/06/09 04:06:16;;;;;;;22.98;12.20;;;13.70;99.90;;;;;;5099211;28;20401;-66
2023/06/09 04:08:44;;;;;;;23.92;12.02;;;13.70;99.90;;;;;;5077088;28;20112;-67
2023/06/09 04:11:10;;;;;;;;;;;13.70;99.90;;;;;;5100241;28;20418;-67
2023/06/09 04:13:35;;;;;;;25.73;11.80;;;13.70;99.90;;;;;;5094864;28;19982;-66
2023/06/09 04:16:01;;;;;;;21.55;11.77;;;13.70;99.90;;;;;;5093539;28;20517;-68
2023/06/09 04:18:26;;;;;;;22.95;12.73;;;13.80;99.90;;;;;;5088926;28;20935;-68
2023/06/09 04:20:52;;;;;;;23.20;12.23;;;13.80;99.90;;;;;;5083826;28;20572;-67
2023/06/09 04:23:18;;;;;;;20.95;11.43;;;13.80;99.90;;;;;;5087840;28;20036;-67
2023/06/09 04:25:45;;;;;;;22.33;11.68;;;13.80;99.90;;;;;;5089207;28;20087;-68
2023/06/09 04:28:11;;;;;;;20.70;12.13;;;13.80;99.90;;;;;;5088598;28;20057;-67
2023/06/09 04:30:38;;;;;;;23.40;12.20;;;13.80;99.90;;;;;;5080393;28;20036;-68
2023/06/09 04:33:04;;;;;;;23.00;11.90;;;13.80;99.90;;;;;;5102288;28;20166;-67
2023/06/09 04:35:31;;;;;;;26.13;12.57;;;13.80;99.90;;;;;;5092740;28;20368;-68
2023/06/09 04:38:00;;;;;;;23.57;12.27;;;13.90;99.90;;;;;;5092371;28;20114;-67
2023/06/09 04:40:27;;;;;;;21.73;12.32;;;13.90;99.90;;;;;;5080660;28;20109;-69
2023/06/09 04:42:59;;;;;;;23.05;12.43;;;13.90;99.90;;;;;;5075496;28;20070;-67
2023/06/09 04:45:33;;;;;;;21.95;12.32;;;13.90;99.90;;;;;;5089259;28;20075;-67
2023/06/09 04:47:59;;;;;;;22.25;12.35;;;13.90;99.90;;;;;;5084598;28;20035;-67
2023/06/09 04:50:28;;;;;;;23.00;12.15;;;13.90;99.90;;;;;;5086889;28;20056;-67
2023/06/09 04:52:55;;;;;;;22.77;12.95;;;13.90;99.90;;;;;;5088466;28;20052;-67
2023/06/09 04:55:25;;;;;;;21.70;12.13;;;14.00;99.90;;;;;;5112214;27;20049;-69
2023/06/09 04:57:53;;;;;;;21.65;13.63;;;14.00;99.90;;;;;;5095260;28;20112;-66
2023/06/09 05:00:19;;;;;;;23.08;13.25;;;14.00;99.90;;;;;;5108358;27;20715;-68
2023/06/09 05:02:45;;;;;;;25.52;12.60;;;14.10;99.90;;;;;;5093873;28;20043;-67
2023/06/09 05:05:12;;;;;;;24.20;13.73;;;14.10;99.90;;;;;;5096535;28;20550;-67
2023/06/09 05:07:39;;;;;;;25.35;12.85;;;14.20;99.90;;;;;;5095585;28;20032;-67
2023/06/09 05:10:09;;;;;;;24.55;12.93;;;14.30;99.90;;;;;;5097523;28;20070;-70
2023/06/09 05:12:39;;;;;;;23.35;12.80;;;14.40;99.90;;;;;;5085141;28;20082;-67
2023/06/09 05:15:06;;;;;;;25.48;14.23;;;14.40;99.90;;;;;;5096392;28;20036;-67
2023/06/09 05:17:41;;;;;;;20.65;13.43;;;14.40;99.90;;;;;;5071261;28;20054;-68
2023/06/09 05:20:09;;;;;;;24.98;13.43;;;14.50;99.90;;;;;;5086994;28;20051;-67
2023/06/09 05:22:36;;;;;;;20.75;12.70;;;14.50;99.90;;;;;;5091290;28;20048;-67
2023/06/09 05:25:03;;;;;;;21.48;14.05;;;14.60;99.90;;;;;;5093164;28;20130;-69
2023/06/09 05:27:28;;;;;;;24.27;13.60;;;14.60;99.90;;;;;;5075026;28;20065;-67
2023/06/09 05:29:54;;;;;;;23.33;14.30;;;14.70;99.90;;;;;;5091238;28;20312;-69
2023/06/09 05:32:20;;;;;;;24.92;13.30;;;14.80;99.90;;;;;;5074449;28;20049;-66
2023/06/09 05:34:45;;;;;;;26.38;13.13;;;14.80;99.90;;;;;;5097421;28;20102;-69
2023/06/09 05:37:13;;;;;;;19.80;12.95;;;14.90;99.90;;;;;;5083516;28;20087;-69
2023/06/09 05:39:40;;;;;;;24.30;13.80;;;15.00;99.90;;;;;;5070136;27;20055;-70
2023/06/09 05:42:07;;;;;;;24.27;13.70;;;15.10;99.90;;;;;;5082891;28;20513;-67
2023/06/09 05:44:33;;;;;;;22.30;13.05;;;15.10;99.90;;;;;;5104612;27;20114;-70
2023/06/09 05:46:58;;;;;;;22.70;13.30;;;15.20;99.90;;;;;;5074692;28;20889;-68
2023/06/09 05:49:24;;;;;;;23.40;12.98;;;15.30;99.90;;;;;;5091799;28;20044;-69
2023/06/09 05:51:53;;;;;;;22.30;12.90;;;15.30;99.90;;;;;;5088665;28;20068;-68
2023/06/09 05:54:24;;;;;;;20.77;12.60;;;15.40;99.90;;;;;;5092429;27;20130;-68
2023/06/09 05:56:53;;;;;;;21.00;13.27;;;15.50;99.90;;;;;;5091755;28;20036;-68
2023/06/09 05:59:20;;;;;;;21.38;13.20;;;15.60;99.90;;;;;;5087536;28;20525;-70
2023/06/09 06:01:50;;;;;;;21.98;11.40;;;15.70;99.90;;;;;;5090779;27;20048;-69
2023/06/09 06:04:16;;;;;;;23.77;12.48;;;15.80;99.90;;;;;;5080548;27;20044;-70
2023/06/09 06:06:42;;;;;;;17.85;11.18;;;15.90;99.90;;;;;;5086719;27;20085;-69
2023/06/09 06:09:08;;;;;;;17.70;11.48;;;16.00;99.90;;;;;;5099309;27;20048;-71
2023/06/09 06:11:34;;;;;;;21.38;11.20;;;16.10;99.90;;;;;;5094042;27;20040;-71
2023/06/09 06:14:00;;;;;;;19.65;10.93;;;16.20;99.90;;;;;;5081809;28;20044;-70
2023/06/09 06:16:26;;;;;;;18.05;11.00;;;16.30;99.90;;;;;;5065217;28;20196;-72
2023/06/09 06:18:54;;;;;;;19.48;10.73;;;16.40;99.90;;;;;;5083460;28;20040;-71
2023/06/09 06:21:20;;;;;;;18.27;10.88;;;16.50;99.90;;;;;;5080185;28;20119;-71
2023/06/09 06:23:46;;;;;;;22.25;10.30;;;16.60;99.90;;;;;;5079284;27;20044;-71
2023/06/09 06:26:11;;;;;;;18.38;9.55;;;16.60;99.90;;;;;;5103726;27;20073;-70
2023/06/09 06:28:37;;;;;;;16.17;9.18;;;16.70;99.90;;;;;;5084176;28;20070;-70
2023/06/09 06:31:03;;;;;;;16.98;10.25;;;16.90;99.90;;;;;;5086642;28;20123;-71
2023/06/09 06:33:30;;;;;;;14.68;8.85;;;17.00;99.90;;;;;;5091788;27;20190;-71
2023/06/09 06:35:56;;;;;;;16.23;8.85;;;17.10;99.90;;;;;;5067391;28;20513;-70
2023/06/09 06:38:22;;;;;;;15.65;8.80;;;17.20;99.90;;;;;;5063109;28;20119;-71
2023/06/09 06:40:48;;;;;;;16.02;9.05;;;17.20;99.90;;;;;;5072468;28;20082;-69
2023/06/09 06:43:14;;;;;;;17.55;8.90;;;17.30;99.90;;;;;;5069039;28;20035;-71
2023/06/09 06:45:40;;;;;;;17.25;8.50;;;17.40;99.90;;;;;;5063021;28;20444;-70
2023/06/09 06:48:06;;;;;;;14.70;8.35;;;17.50;99.90;;;;;;5081797;28;20047;-73
2023/06/09 06:50:32;;;;;;;13.88;8.05;;;17.50;99.90;;;;;;5079599;28;21140;-69
2023/06/09 06:52:58;;;;;;;16.38;9.10;;;17.60;99.90;;;;;;5079485;28;20043;-70
2023/06/09 06:55:24;;;;;;;18.67;8.38;;;17.70;99.90;;;;;;5086423;28;20060;-72
2023/06/09 06:57:50;;;;;;;15.15;8.23;;;17.80;99.90;;;;;;5069410;28;20051;-71
2023/06/09 07:00:16;;;;;;;13.38;7.85;;;17.90;99.90;;;;;;5065246;28;20040;-72
2023/06/09 07:02:46;;;;;;;13.82;7.80;;;17.90;99.90;;;;;;5082952;28;22194;-75
2023/06/09 07:05:12;;;;;;;16.90;7.80;;;18.10;99.90;;;;;;5067930;28;20051;-72
2023/06/09 07:07:38;;;;;;;12.82;8.40;;;18.20;99.90;;;;;;5096553;28;20459;-73
2023/06/09 07:10:07;;;;;;;13.63;7.68;;;18.20;99.90;;;;;;5075979;28;20047;-75
2023/06/09 07:12:33;;;;;;;14.02;7.32;;;18.30;99.90;;;;;;5087966;28;20085;-74
2023/06/09 07:14:58;;;;;;;14.13;7.72;;;18.40;99.90;;;;;;5095314;28;20044;-75
2023/06/09 07:17:24;;;;;;;14.68;7.78;;;18.50;99.90;;;;;;5094139;28;20039;-74
2023/06/09 07:19:50;;;;;;;15.40;7.18;;;18.70;99.90;;;;;;5077583;28;20134;-72
2023/06/09 07:22:16;;;;;;;13.30;7.60;;;18.70;99.90;;;;;;5094814;28;20108;-70
2023/06/09 07:24:42;;;;;;;13.95;7.63;;;18.90;99.90;;;;;;5077069;28;20081;-74
2023/06/09 07:27:08;;;;;;;14.88;7.60;;;18.90;99.90;;;;;;5099365;27;20107;-73
2023/06/09 07:29:37;;;;;;;11.48;7.07;;;19.00;99.90;;;;;;5086499;28;20091;-73
2023/06/09 07:32:03;;;;;;;12.10;6.70;;;19.10;99.90;;;;;;5067493;28;20089;-73
2023/06/09 07:34:31;;;;;;;12.45;6.90;;;19.20;99.90;;;;;;5090180;28;20036;-73
2023/06/09 07:36:59;;;;;;;12.20;7.55;;;19.30;99.90;;;;;;5076633;28;20961;-73
2023/06/09 07:39:27;;;;;;;;;;;19.50;99.90;;;;;;5095174;28;20038;-72
2023/06/09 07:41:53;;;;;;;12.75;7.25;;;19.50;99.90;;;;;;5076880;28;21620;-74
2023/06/09 07:44:18;;;;;;;11.13;6.97;;;19.60;99.90;;;;;;5092608;28;20067;-73
2023/06/09 07:46:44;;;;;;;11.23;7.05;;;19.70;99.90;;;;;;5076994;28;20043;-74
2023/06/09 07:49:10;;;;;;;13.30;7.07;;;19.80;99.90;;;;;;5074766;28;20067;-71
2023/06/09 07:51:37;;;;;;;14.27;7.65;;;19.90;99.90;;;;;;5068921;28;20047;-72
2023/06/09 07:54:07;;;;;;;11.13;7.22;;;20.00;99.90;;;;;;5088504;28;21151;-74
2023/06/09 07:56:33;;;;;;;14.25;6.25;;;20.10;99.90;;;;;;5073887;28;20062;-73
2023/06/09 07:58:59;;;;;;;11.50;6.82;;;20.20;99.90;;;;;;5095167;28;20407;-75
2023/06/09 08:01:25;;;;;;;12.07;6.93;;;20.30;99.90;;;;;;5092976;28;20079;-74
2023/06/09 08:03:51;;;;;;;12.57;6.68;;;20.40;99.90;;;;;;5076800;28;20050;-73
2023/06/09 08:06:17;;;;;;;12.45;6.95;;;20.50;99.90;;;;;;5076094;28;20052;-72
2023/06/09 08:08:43;;;;;;;12.48;6.72;;;20.60;99.90;;;;;;5070522;28;20069;-73
2023/06/09 08:11:09;;;;;;;11.68;6.93;;;20.70;99.90;;;;;;5078260;28;20048;-72
2023/06/09 08:13:35;;;;;;;12.55;6.80;;;20.70;99.90;;;;;;5076093;28;20047;-70
2023/06/09 08:16:01;;;;;;;12.20;6.70;;;20.80;99.90;;;;;;5097574;28;20114;-70
2023/06/09 08:18:26;;;;;;;13.73;7.60;;;20.90;99.90;;;;;;5081283;28;20498;-71
2023/06/09 08:20:52;;;;;;;10.70;6.55;;;21.00;99.90;;;;;;5098313;28;20043;-71
2023/06/09 08:23:22;;;;;;;11.68;6.40;;;21.00;99.90;;;;;;5098954;28;20716;-72
2023/06/09 08:25:48;;;;;;;11.73;6.82;;;21.10;99.90;;;;;;5094827;28;20048;-72
2023/06/09 08:28:14;;;;;;;15.52;7.80;;;21.20;99.90;;;;;;5070985;28;20123;-72
2023/06/09 08:30:40;;;;;;;12.48;6.50;;;21.30;99.90;;;;;;5090841;28;20127;-71
2023/06/09 08:33:06;;;;;;;11.48;6.68;;;21.40;99.90;;;;;;5096865;28;20494;-73
2023/06/09 08:35:32;;;;;;;12.90;7.22;;;21.50;99.90;;;;;;5097864;28;20055;-72
2023/06/09 08:38:01;;;;;;;14.40;6.90;;;21.60;99.90;;;;;;5088441;28;20043;-73
2023/06/09 08:40:27;;;;;;;15.00;6.68;;;21.70;99.90;;;;;;5070845;28;20058;-75
2023/06/09 08:42:58;;;;;;;10.50;6.30;;;21.80;99.90;;;;;;5090945;28;20075;-73
2023/06/09 08:45:25;;;;;;;11.35;6.10;;;21.90;99.90;;;;;;5076975;28;20039;-71
2023/06/09 08:47:53;;;;;;;10.38;5.80;;;21.90;99.90;;;;;;5089801;28;20101;-73
2023/06/09 08:50:22;;;;;;;9.70;5.85;;;22.10;99.90;;;;;;5097804;28;20119;-71
2023/06/09 08:52:48;;;;;;;11.05;6.40;;;22.20;99.90;;;;;;5096933;28;20048;-72
2023/06/09 08:55:14;;;;;;;11.90;6.38;;;22.30;99.90;;;;;;5079687;28;20064;-71
2023/06/09 08:57:40;;;;;;;9.97;5.77;;;22.40;99.90;;;;;;5089411;28;20032;-71
2023/06/09 09:00:09;;;;;;;13.65;6.25;;;22.50;99.90;;;;;;5094021;28;20490;-72
2023/06/09 09:02:35;;;;;;;17.20;6.45;;;22.60;99.90;;;;;;5089905;28;20051;-70
2023/06/09 09:05:01;;;;;;;18.05;6.55;;;22.70;99.90;;;;;;5074449;28;20045;-71
2023/06/09 09:07:27;;;;;;;58.83;10.63;;;22.80;99.90;;;;;;5080065;28;20039;-72
2023/06/09 09:09:54;;;;;;;23.43;6.50;;;22.90;99.90;;;;;;5080251;28;20487;-71
2023/06/09 09:12:19;;;;;;;15.30;6.57;;;23.00;99.90;;;;;;5078565;28;20551;-70
2023/06/09 09:14:46;;;;;;;15.27;7.38;;;23.10;99.50;;;;;;5074976;28;20055;-70
2023/06/09 09:17:14;;;;;;;14.20;6.07;;;23.30;99.40;;;;;;5090622;28;20032;-72
2023/06/09 09:19:48;;;;;;;13.85;6.50;;;23.40;99.30;;;;;;5072321;28;20047;-70
2023/06/09 09:22:14;;;;;;;10.77;6.45;;;23.50;98.80;;;;;;5067603;28;21003;-68
2023/06/09 09:24:43;;;;;;;7.85;5.93;;;23.60;98.30;;;;;;5089011;28;20403;-69
2023/06/09 09:27:19;;;;;;;9.70;6.43;;;23.60;97.90;;;;;;5104433;28;20048;-69
2023/06/09 09:29:46;;;;;;;13.90;6.57;;;23.70;97.60;;;;;;5092329;28;20039;-69
2023/06/09 09:32:13;;;;;;;11.32;6.60;;;23.70;97.30;;;;;;5071451;28;20886;-69
2023/06/09 09:34:44;;;;;;;12.10;6.30;;;23.80;97.40;;;;;;5088711;28;20040;-69
2023/06/09 09:37:11;;;;;;;10.88;6.25;;;24.00;97.30;;;;;;5092013;28;20048;-69
2023/06/09 09:39:53;;;;;;;9.98;5.72;;;24.10;96.80;;;;;;5073015;28;20036;-71
2023/06/09 09:42:20;;;;;;;11.02;6.10;;;24.20;97.40;;;;;;5102139;28;20052;-70
2023/06/09 09:44:47;;;;;;;;;;;24.30;97.10;;;;;;5082612;28;20059;-69
2023/06/09 09:47:15;;;;;;;12.07;5.68;;;24.40;97.00;;;;;;5095255;28;19947;-69
2023/06/09 09:49:58;;;;;;;8.90;5.88;;;24.50;97.20;;;;;;5070738;28;20711;-70
2023/06/09 09:52:32;;;;;;;17.10;6.40;;;24.60;96.80;;;;;;5081071;28;20051;-70
2023/06/09 09:55:04;;;;;;;7.43;5.72;;;24.70;97.00;;;;;;5076475;28;20447;-71
2023/06/09 09:57:31;;;;;;;9.85;5.65;;;24.80;96.50;;;;;;5101140;28;20495;-70
2023/06/09 10:00:03;;;;;;;18.83;6.18;;;24.90;95.80;;;;;;5102013;28;20039;-71
2023/06/09 10:02:30;;;;;;;7.75;5.40;;;25.00;95.60;;;;;;5075761;28;20043;-73
2023/06/09 10:05:01;;;;;;;9.23;5.90;;;25.10;96.00;;;;;;5091818;28;20050;-70
2023/06/09 10:07:29;;;;;;;8.55;5.57;;;25.20;95.10;;;;;;5117160;27;20086;-73
2023/06/09 10:09:57;;;;;;;9.63;5.75;;;25.20;94.10;;;;;;5074901;28;20039;-70
2023/06/09 10:12:24;;;;;;;12.23;5.50;;;25.30;94.30;;;;;;5077730;28;20048;-70
2023/06/09 10:14:53;;;;;;;8.52;5.50;;;25.50;94.00;;;;;;5087171;28;20032;-70
2023/06/09 10:17:20;;;;;;;7.65;5.15;;;25.60;92.70;;;;;;5081146;28;20059;-70
2023/06/09 10:19:51;;;;;;;6.82;5.30;;;25.60;92.00;;;;;;5078087;28;20051;-69
2023/06/09 10:22:18;;;;;;;8.93;5.68;;;25.70;91.60;;;;;;5081663;28;20114;-71
2023/06/09 10:24:46;;;;;;;11.38;5.50;;;25.70;91.50;;;;;;5097944;28;20043;-70
2023/06/09 10:27:13;;;;;;;8.23;5.60;;;25.80;91.60;;;;;;5077885;28;20040;-73
2023/06/09 10:29:39;;;;;;;;;;;25.90;91.20;;;;;;5080088;28;20047;-69
2023/06/09 10:32:07;;;;;;;9.37;5.37;;;26.00;90.80;;;;;;5080463;28;19920;-72
2023/06/09 10:34:34;;;;;;;9.88;5.43;;;26.00;91.00;;;;;;5094573;28;20070;-71
2023/06/09 10:37:00;;;;;;;11.13;5.20;;;26.10;90.00;;;;;;5071880;28;20047;-70
2023/06/09 10:39:39;;;;;;;7.28;5.47;;;26.20;90.10;;;;;;5086580;28;20050;-72
2023/06/09 10:42:09;;;;;;;7.55;5.18;;;26.30;90.00;;;;;;5070951;28;20054;-71
2023/06/09 10:44:44;;;;;;;6.93;5.45;;;26.40;88.90;;;;;;5100144;28;20043;-69
2023/06/09 10:47:10;;;;;;;8.50;5.53;;;26.50;88.00;;;;;;5074527;28;20097;-70
2023/06/09 10:49:39;;;;;;;7.18;5.25;;;26.50;88.20;;;;;;5094784;28;20065;-70
2023/06/09 10:52:35;;;;;;;7.65;5.50;;;26.60;87.10;;;;;;5089929;28;20407;-69
2023/06/09 10:55:12;;;;;;;7.65;5.78;;;26.60;87.70;;;;;;5086876;28;20090;-70
2023/06/09 10:57:38;;;;;;;9.48;5.60;;;26.70;87.50;;;;;;5081666;28;20100;-69
2023/06/09 11:00:11;;;;;;;;;;;26.80;86.60;;;;;;5076765;28;20087;-72
2023/06/09 11:03:00;;;;;;;6.80;5.32;;;26.90;87.80;;;;;;5082899;28;19923;-69
2023/06/09 11:05:43;;;;;;;9.25;5.32;;;26.90;86.50;;;;;;5027210;28;20051;-70
2023/06/09 11:08:09;;;;;;;8.68;5.47;;;27.00;86.40;;;;;;5067846;28;20047;-71
2023/06/09 11:10:36;;;;;;;7.13;5.50;;;27.00;86.10;;;;;;5097456;28;20185;-70
2023/06/09 11:13:23;;;;;;;10.23;5.43;;;27.10;86.10;;;;;;5091331;28;20065;-71
2023/06/09 11:15:57;;;;;;;6.55;5.05;;;27.20;85.80;;;;;;5076220;28;21178;-70
2023/06/09 11:18:23;;;;;;;9.52;5.38;;;27.20;84.10;;;;;;5104986;27;20112;-70
2023/06/09 11:21:18;;;;;;;9.23;5.63;;;27.30;85.00;;;;;;5070856;28;20031;-71
2023/06/09 11:24:01;;;;;;;7.25;5.38;;;27.50;84.80;;;;;;5069289;28;20410;-74
2023/06/09 11:26:28;;;;;;;9.63;5.53;;;27.60;82.80;;;;;;5075207;28;20051;-73
2023/06/09 11:28:53;;;;;;;7.60;5.18;;;27.70;82.20;;;;;;5069006;28;20455;-71
2023/06/09 11:31:19;;;;;;;9.87;5.50;;;27.70;80.10;;;;;;5068344;28;20047;-72
2023/06/09 11:33:50;;;;;;;12.00;5.57;;;27.70;79.90;;;;;;5108592;27;20044;-70
2023/06/09 11:36:21;;;;;;;8.90;5.43;;;27.80;79.30;;;;;;5093772;28;20079;-71
2023/06/09 11:38:49;;;;;;;9.40;5.45;;;27.90;78.80;;;;;;5075695;28;20039;-71
2023/06/09 11:41:19;;;;;;;7.63;5.50;;;27.90;77.80;;;;;;5094763;28;20050;-70
2023/06/09 11:43:52;;;;;;;7.28;4.82;;;28.00;77.10;;;;;;5078863;28;20184;-71
2023/06/09 11:46:21;;;;;;;7.05;5.40;;;28.00;77.60;;;;;;5100617;28;20405;-71
2023/06/09 11:48:57;;;;;;;7.90;5.23;;;28.10;77.60;;;;;;5098713;28;20052;-70
2023/06/09 11:51:23;;;;;;;6.07;5.15;;;28.10;76.50;;;;;;5079760;28;20510;-70
2023/06/09 11:53:48;;;;;;;12.73;5.97;;;28.20;77.60;;;;;;5087016;28;20050;-72
2023/06/09 11:56:14;;;;;;;8.23;4.97;;;28.30;77.90;;;;;;5089008;28;20052;-68
2023/06/09 11:58:41;;;;;;;7.33;5.53;;;28.40;76.40;;;;;;5069665;28;20189;-69
2023/06/09 12:01:06;;;;;;;7.70;5.50;;;28.40;75.80;;;;;;5059225;28;20040;-70
2023/06/09 12:03:36;;;;;;;12.63;5.43;;;28.50;76.00;;;;;;5074087;28;20052;-70
2023/06/09 12:06:02;;;;;;;9.60;5.70;;;28.50;75.00;;;;;;5090256;28;21490;-71
2023/06/09 12:08:28;;;;;;;8.73;5.93;;;28.60;73.90;;;;;;5075759;28;20051;-70
2023/06/09 12:10:53;;;;;;;7.87;5.57;;;28.60;73.20;;;;;;5093175;28;20113;-71
2023/06/09 12:13:19;;;;;;;9.83;5.90;;;28.60;73.10;;;;;;5093519;28;20577;-69
2023/06/09 12:15:52;;;;;;;6.67;5.40;;;28.70;73.10;;;;;;5084686;28;20759;-70
2023/06/09 12:18:18;;;;;;;7.03;5.15;;;28.70;73.20;;;;;;5089505;28;20040;-69
2023/06/09 12:20:46;;;;;;;7.97;5.90;;;28.80;74.50;;;;;;5086964;28;20051;-69
2023/06/09 12:23:14;;;;;;;6.88;5.47;;;28.90;73.30;;;;;;5084120;28;20784;-72
2023/06/09 12:25:44;;;;;;;7.75;5.35;;;28.90;73.50;;;;;;5092651;28;20047;-70
2023/06/09 12:28:16;;;;;;;6.88;6.18;;;29.00;72.50;;;;;;5094091;28;20413;-70
2023/06/09 12:30:49;;;;;;;9.90;6.00;;;29.00;71.80;;;;;;5081960;28;20043;-70
2023/06/09 12:33:20;;;;;;;7.38;5.78;;;29.10;70.70;;;;;;5097397;28;20052;-72
2023/06/09 12:35:54;;;;;;;7.32;5.55;;;29.00;70.70;;;;;;5085400;28;20083;-70
2023/06/09 12:38:26;;;;;;;8.57;5.53;;;29.10;69.60;;;;;;5071703;28;20039;-71
2023/06/09 12:40:56;;;;;;;9.82;5.38;;;29.10;68.90;;;;;;5090651;28;20097;-73